sensor_id;sensor_type;location;lat;lon;timestamp;temperature;humidity
33825;DHT22;20127;48.962;8.342;2023-07-13T00:02:29;17.90;99.90
33825;DHT22;20127;48.962;8.342;2023-07-13T00:05:31;17.80;99.90
33825;DHT22;20127;48.962;8.342;2023-07-13T00:08:32;17.70;99.90
33825;DHT22;20127;48.962;8.342;2023-07-13T00:11:34;17.70;99.90
33825;DHT22;20127;48.962;8.342;2023-07-13T00:14:36;17.60;99.90
33825;DHT22;20127;48.962;8.342;2023-07-13T00:17:39;17.50;99.90
33825;DHT22;20127;48.962;8.342;2023-07-13T00:20:41;17.30;99.90
33825;DHT22;20127;48.962;8.342;2023-07-13T00:23:43;17.20;99.90
33825;DHT22;20127;48.962;8.342;2023-07-13T00:26:45;17.20;99.90
33825;DHT22;20127;48.962;8.342;2023-07-13T00:29:46;17.20;99.90
33825;DHT22;20127;48.962;8.342;2023-07-13T00:32:50;17.20;99.90
33825;DHT22;20127;48.962;8.342;2023-07-13T00:35:53;17.10;99.90
33825;DHT22;20127;48.962;8.342;2023-07-13T00:38:55;17.00;99.90
33825;DHT22;20127;48.962;8.342;2023-07-13T00:41:57;17.00;99.90
33825;DHT22;20127;48.962;8.342;2023-07-13T00:45:04;17.00;99.90
33825;DHT22;20127;48.962;8.342;2023-07-13T00:48:07;17.00;99.90
33825;DHT22;20127;48.962;8.342;2023-07-13T00:51:10;17.00;99.90
33825;DHT22;20127;48.962;8.342;2023-07-13T00:54:15;17.00;99.90
33825;DHT22;20127;48.962;8.342;2023-07-13T00:57:19;16.90;99.90
33825;DHT22;20127;48.962;8.342;2023-07-13T01:00:22;16.80;99.90
33825;DHT22;20127;48.962;8.342;2023-07-13T01:03:25;16.70;99.90
33825;DHT22;20127;48.962;8.342;2023-07-13T01:06:27;16.80;99.90
33825;DHT22;20127;48.962;8.342;2023-07-13T01:09:29;16.70;99.90
33825;DHT22;20127;48.962;8.342;2023-07-13T01:12:31;16.70;99.90
33825;DHT22;20127;48.962;8.342;2023-07-13T01:15:38;16.80;99.90
33825;DHT22;20127;48.962;8.342;2023-07-13T01:18:42;16.80;99.90
33825;DHT22;20127;48.962;8.342;2023-07-13T01:21:50;16.70;99.90
33825;DHT22;20127;48.962;8.342;2023-07-13T01:24:52;16.80;99.90
33825;DHT22;20127;48.962;8.342;2023-07-13T01:27:54;16.80;99.90
33825;DHT22;20127;48.962;8.342;2023-07-13T01:30:57;16.70;99.90
33825;DHT22;20127;48.962;8.342;2023-07-13T01:33:59;16.60;99.90
33825;DHT22;20127;48.962;8.342;2023-07-13T01:37:02;16.50;99.90
33825;DHT22;20127;48.962;8.342;2023-07-13T01:40:05;16.50;99.90
33825;DHT22;20127;48.962;8.342;2023-07-13T01:43:08;16.50;99.90
33825;DHT22;20127;48.962;8.342;2023-07-13T01:46:10;16.40;99.90
33825;DHT22;20127;48.962;8.342;2023-07-13T01:49:12;16.30;99.90
33825;DHT22;20127;48.962;8.342;2023-07-13T01:52:15;16.30;99.90
33825;DHT22;20127;48.962;8.342;2023-07-13T01:55:17;16.20;99.90
33825;DHT22;20127;48.962;8.342;2023-07-13T01:58:18;16.10;99.90
33825;DHT22;20127;48.962;8.342;2023-07-13T02:01:20;16.10;99.90
33825;DHT22;20127;48.962;8.342;2023-07-13T02:04:22;16.10;99.90
33825;DHT22;20127;48.962;8.342;2023-07-13T02:07:25;16.10;99.90
33825;DHT22;20127;48.962;8.342;2023-07-13T02:10:26;16.00;99.90
33825;DHT22;20127;48.962;8.342;2023-07-13T02:13:29;15.90;99.90
33825;DHT22;20127;48.962;8.342;2023-07-13T02:16:30;15.80;99.90
33825;DHT22;20127;48.962;8.342;2023-07-13T02:19:32;15.80;99.90
33825;DHT22;20127;48.962;8.342;2023-07-13T02:22:35;15.70;99.90
33825;DHT22;20127;48.962;8.342;2023-07-13T02:25:37;15.70;99.90
33825;DHT22;20127;48.962;8.342;2023-07-13T02:28:39;15.60;99.90
33825;DHT22;20127;48.962;8.342;2023-07-13T02:31:40;15.60;99.90
33825;DHT22;20127;48.962;8.342;2023-07-13T02:34:42;15.60;99.90
33825;DHT22;20127;48.962;8.342;2023-07-13T02:37:45;15.60;99.90
33825;DHT22;20127;48.962;8.342;2023-07-13T02:40:47;15.50;99.90
33825;DHT22;20127;48.962;8.342;2023-07-13T02:43:49;15.50;99.90
33825;DHT22;20127;48.962;8.342;2023-07-13T02:46:50;15.40;99.90
33825;DHT22;20127;48.962;8.342;2023-07-13T02:49:52;15.40;99.90
33825;DHT22;20127;48.962;8.342;2023-07-13T02:52:55;15.40;99.90
33825;DHT22;20127;48.962;8.342;2023-07-13T02:55:57;15.30;99.90
33825;DHT22;20127;48.962;8.342;2023-07-13T02:58:58;15.30;99.90
33825;DHT22;20127;48.962;8.342;2023-07-13T03:02:00;15.30;99.90
33825;DHT22;20127;48.962;8.342;2023-07-13T03:05:03;15.30;99.90
33825;DHT22;20127;48.962;8.342;2023-07-13T03:08:06;15.40;99.90
33825;DHT22;20127;48.962;8.342;2023-07-13T03:11:10;15.40;99.90
33825;DHT22;20127;48.962;8.342;2023-07-13T03:14:12;15.30;99.90
33825;DHT22;20127;48.962;8.342;2023-07-13T03:17:14;15.20;99.90
33825;DHT22;20127;48.962;8.342;2023-07-13T03:20:16;15.10;99.90
33825;DHT22;20127;48.962;8.342;2023-07-13T03:23:21;15.20;99.90
33825;DHT22;20127;48.962;8.342;2023-07-13T03:26:23;15.30;99.90
33825;DHT22;20127;48.962;8.342;2023-07-13T03:29:25;15.40;99.90
33825;DHT22;20127;48.962;8.342;2023-07-13T03:32:26;15.30;99.90
33825;DHT22;20127;48.962;8.342;2023-07-13T03:35:28;15.20;99.90
33825;DHT22;20127;48.962;8.342;2023-07-13T03:38:31;15.00;99.90
33825;DHT22;20127;48.962;8.342;2023-07-13T03:41:33;15.10;99.90
33825;DHT22;20127;48.962;8.342;2023-07-13T03:44:35;15.20;99.90
33825;DHT22;20127;48.962;8.342;2023-07-13T03:47:37;15.30;99.90
33825;DHT22;20127;48.962;8.342;2023-07-13T03:50:38;15.30;99.90
33825;DHT22;20127;48.962;8.342;2023-07-13T03:53:43;15.20;99.90
33825;DHT22;20127;48.962;8.342;2023-07-13T03:56:45;15.20;99.90
33825;DHT22;20127;48.962;8.342;2023-07-13T03:59:47;15.30;99.90
33825;DHT22;20127;48.962;8.342;2023-07-13T04:02:48;15.30;99.90
33825;DHT22;20127;48.962;8.342;2023-07-13T04:05:50;15.40;99.90
33825;DHT22;20127;48.962;8.342;2023-07-13T04:08:55;15.40;99.90
33825;DHT22;20127;48.962;8.342;2023-07-13T04:11:57;15.40;99.90
33825;DHT22;20127;48.962;8.342;2023-07-13T04:14:58;15.40;99.90
33825;DHT22;20127;48.962;8.342;2023-07-13T04:18:00;15.50;99.90
33825;DHT22;20127;48.962;8.342;2023-07-13T04:21:03;15.60;99.90
33825;DHT22;20127;48.962;8.342;2023-07-13T04:24:06;15.70;99.90
33825;DHT22;20127;48.962;8.342;2023-07-13T04:27:09;15.80;99.90
33825;DHT22;20127;48.962;8.342;2023-07-13T04:30:10;15.80;99.90
33825;DHT22;20127;48.962;8.342;2023-07-13T04:33:12;15.80;99.90
33825;DHT22;20127;48.962;8.342;2023-07-13T04:36:14;16.00;99.90
33825;DHT22;20127;48.962;8.342;2023-07-13T04:39:17;16.20;99.90
33825;DHT22;20127;48.962;8.342;2023-07-13T04:42:19;16.30;99.90
33825;DHT22;20127;48.962;8.342;2023-07-13T04:45:21;16.40;99.90
33825;DHT22;20127;48.962;8.342;2023-07-13T04:48:24;16.40;99.90
33825;DHT22;20127;48.962;8.342;2023-07-13T04:51:26;16.60;99.90
33825;DHT22;20127;48.962;8.342;2023-07-13T04:54:29;16.80;99.90
33825;DHT22;20127;48.962;8.342;2023-07-13T04:57:31;17.00;99.90
33825;DHT22;20127;48.962;8.342;2023-07-13T05:00:33;17.30;99.90
33825;DHT22;20127;48.962;8.342;2023-07-13T05:03:34;17.50;99.90
33825;DHT22;20127;48.962;8.342;2023-07-13T05:06:36;17.80;99.90
33825;DHT22;20127;48.962;8.342;2023-07-13T05:09:39;17.90;99.90
33825;DHT22;20127;48.962;8.342;2023-07-13T05:12:41;18.00;99.90
33825;DHT22;20127;48.962;8.342;2023-07-13T05:15:43;18.00;99.90
33825;DHT22;20127;48.962;8.342;2023-07-13T05:18:44;18.10;99.90
33825;DHT22;20127;48.962;8.342;2023-07-13T05:21:46;18.20;99.90
33825;DHT22;20127;48.962;8.342;2023-07-13T05:24:49;18.30;99.90
33825;DHT22;20127;48.962;8.342;2023-07-13T05:27:52;18.50;99.90
33825;DHT22;20127;48.962;8.342;2023-07-13T05:30:54;18.50;99.90
33825;DHT22;20127;48.962;8.342;2023-07-13T05:33:55;18.40;99.90
33825;DHT22;20127;48.962;8.342;2023-07-13T05:36:57;18.60;99.90
33825;DHT22;20127;48.962;8.342;2023-07-13T05:40:00;19.10;99.90
33825;DHT22;20127;48.962;8.342;2023-07-13T05:43:02;19.40;99.90
33825;DHT22;20127;48.962;8.342;2023-07-13T05:46:03;19.70;99.90
33825;DHT22;20127;48.962;8.342;2023-07-13T05:49:05;20.10;99.90
33825;DHT22;20127;48.962;8.342;2023-07-13T05:52:07;20.70;99.90
33825;DHT22;20127;48.962;8.342;2023-07-13T05:55:10;21.60;99.90
33825;DHT22;20127;48.962;8.342;2023-07-13T05:58:12;22.60;99.90
33825;DHT22;20127;48.962;8.342;2023-07-13T06:01:15;23.50;98.90
33825;DHT22;20127;48.962;8.342;2023-07-13T06:04:16;24.50;96.20
33825;DHT22;20127;48.962;8.342;2023-07-13T06:07:18;25.40;93.90
33825;DHT22;20127;48.962;8.342;2023-07-13T06:10:21;26.40;91.30
33825;DHT22;20127;48.962;8.342;2023-07-13T06:13:23;27.20;87.40
33825;DHT22;20127;48.962;8.342;2023-07-13T06:16:25;27.80;82.30
33825;DHT22;20127;48.962;8.342;2023-07-13T06:19:26;28.20;78.40
33825;DHT22;20127;48.962;8.342;2023-07-13T06:22:28;28.30;75.60
33825;DHT22;20127;48.962;8.342;2023-07-13T06:25:31;28.00;73.60
33825;DHT22;20127;48.962;8.342;2023-07-13T06:28:34;27.30;72.30
33825;DHT22;20127;48.962;8.342;2023-07-13T06:31:36;26.30;73.30
33825;DHT22;20127;48.962;8.342;2023-07-13T06:34:38;25.60;74.60
33825;DHT22;20127;48.962;8.342;2023-07-13T06:37:40;25.10;75.40
33825;DHT22;20127;48.962;8.342;2023-07-13T06:40:43;24.80;76.50
33825;DHT22;20127;48.962;8.342;2023-07-13T06:43:45;24.70;76.90
33825;DHT22;20127;48.962;8.342;2023-07-13T06:46:47;24.60;77.00
33825;DHT22;20127;48.962;8.342;2023-07-13T06:49:48;24.50;77.10
33825;DHT22;20127;48.962;8.342;2023-07-13T06:52:50;24.00;76.90
33825;DHT22;20127;48.962;8.342;2023-07-13T06:55:54;23.60;78.10
33825;DHT22;20127;48.962;8.342;2023-07-13T06:58:56;23.60;79.00
33825;DHT22;20127;48.962;8.342;2023-07-13T07:01:58;23.50;79.70
33825;DHT22;20127;48.962;8.342;2023-07-13T07:04:59;23.70;80.30
33825;DHT22;20127;48.962;8.342;2023-07-13T07:08:01;23.90;80.50
33825;DHT22;20127;48.962;8.342;2023-07-13T07:11:05;23.90;80.40
33825;DHT22;20127;48.962;8.342;2023-07-13T07:14:07;24.00;80.30
33825;DHT22;20127;48.962;8.342;2023-07-13T07:17:09;24.00;80.50
33825;DHT22;20127;48.962;8.342;2023-07-13T07:20:11;24.00;80.20
33825;DHT22;20127;48.962;8.342;2023-07-13T07:23:13;23.90;79.50
33825;DHT22;20127;48.962;8.342;2023-07-13T07:26:16;23.80;79.20
33825;DHT22;20127;48.962;8.342;2023-07-13T07:29:18;23.70;79.70
33825;DHT22;20127;48.962;8.342;2023-07-13T07:32:20;23.80;80.10
33825;DHT22;20127;48.962;8.342;2023-07-13T07:35:22;24.10;79.60
33825;DHT22;20127;48.962;8.342;2023-07-13T07:38:23;24.10;78.60
33825;DHT22;20127;48.962;8.342;2023-07-13T07:41:26;24.10;78.30
33825;DHT22;20127;48.962;8.342;2023-07-13T07:44:28;24.30;77.60
33825;DHT22;20127;48.962;8.342;2023-07-13T07:47:30;24.40;76.50
33825;DHT22;20127;48.962;8.342;2023-07-13T07:50:31;24.50;76.60
33825;DHT22;20127;48.962;8.342;2023-07-13T07:53:33;24.60;75.80
33825;DHT22;20127;48.962;8.342;2023-07-13T07:56:36;24.80;75.50
33825;DHT22;20127;48.962;8.342;2023-07-13T07:59:38;25.00;75.10
33825;DHT22;20127;48.962;8.342;2023-07-13T08:02:41;25.00;74.00
33825;DHT22;20127;48.962;8.342;2023-07-13T08:05:43;25.00;73.40
33825;DHT22;20127;48.962;8.342;2023-07-13T08:08:44;25.00;72.20
33825;DHT22;20127;48.962;8.342;2023-07-13T08:11:47;25.00;71.60
33825;DHT22;20127;48.962;8.342;2023-07-13T08:14:50;25.20;71.90
33825;DHT22;20127;48.962;8.342;2023-07-13T08:17:54;25.50;70.70
33825;DHT22;20127;48.962;8.342;2023-07-13T08:20:55;25.70;68.60
33825;DHT22;20127;48.962;8.342;2023-07-13T08:23:57;25.80;67.20
33825;DHT22;20127;48.962;8.342;2023-07-13T08:27:00;26.10;66.10
33825;DHT22;20127;48.962;8.342;2023-07-13T08:30:02;26.20;64.50
33825;DHT22;20127;48.962;8.342;2023-07-13T08:33:06;26.30;63.50
33825;DHT22;20127;48.962;8.342;2023-07-13T08:36:07;26.50;62.50
33825;DHT22;20127;48.962;8.342;2023-07-13T08:39:09;26.60;61.70
33825;DHT22;20127;48.962;8.342;2023-07-13T08:42:16;26.70;60.60
33825;DHT22;20127;48.962;8.342;2023-07-13T08:45:25;26.70;59.50
33825;DHT22;20127;48.962;8.342;2023-07-13T08:48:33;26.80;59.00
33825;DHT22;20127;48.962;8.342;2023-07-13T08:51:41;26.90;58.40
33825;DHT22;20127;48.962;8.342;2023-07-13T08:54:49;27.00;57.70
33825;DHT22;20127;48.962;8.342;2023-07-13T08:57:59;27.20;57.20
33825;DHT22;20127;48.962;8.342;2023-07-13T09:01:05;27.30;56.90
33825;DHT22;20127;48.962;8.342;2023-07-13T09:04:16;27.50;56.60
33825;DHT22;20127;48.962;8.342;2023-07-13T09:07:29;27.70;55.90
33825;DHT22;20127;48.962;8.342;2023-07-13T09:10:41;27.50;55.30
33825;DHT22;20127;48.962;8.342;2023-07-13T09:13:52;27.40;55.20
33825;DHT22;20127;48.962;8.342;2023-07-13T09:16:55;27.50;55.40
33825;DHT22;20127;48.962;8.342;2023-07-13T09:20:00;27.70;55.20
33825;DHT22;20127;48.962;8.342;2023-07-13T09:23:09;27.90;54.60
33825;DHT22;20127;48.962;8.342;2023-07-13T09:26:15;28.00;54.50
33825;DHT22;20127;48.962;8.342;2023-07-13T09:29:23;27.90;54.20
33825;DHT22;20127;48.962;8.342;2023-07-13T09:32:29;28.00;54.00
33825;DHT22;20127;48.962;8.342;2023-07-13T09:35:31;28.10;53.20
33825;DHT22;20127;48.962;8.342;2023-07-13T09:38:33;28.20;52.70
33825;DHT22;20127;48.962;8.342;2023-07-13T09:41:41;28.20;52.40
33825;DHT22;20127;48.962;8.342;2023-07-13T09:44:53;28.20;52.10
33825;DHT22;20127;48.962;8.342;2023-07-13T09:47:59;28.30;51.80
33825;DHT22;20127;48.962;8.342;2023-07-13T09:51:07;28.40;52.00
33825;DHT22;20127;48.962;8.342;2023-07-13T09:54:18;28.60;51.50
33825;DHT22;20127;48.962;8.342;2023-07-13T09:57:23;28.60;51.00
33825;DHT22;20127;48.962;8.342;2023-07-13T10:00:29;28.60;50.90
33825;DHT22;20127;48.962;8.342;2023-07-13T10:03:33;28.80;50.90
33825;DHT22;20127;48.962;8.342;2023-07-13T10:06:39;29.00;50.10
33825;DHT22;20127;48.962;8.342;2023-07-13T10:09:41;28.90;49.90
33825;DHT22;20127;48.962;8.342;2023-07-13T10:12:43;28.80;49.90
33825;DHT22;20127;48.962;8.342;2023-07-13T10:15:46;28.90;50.40
33825;DHT22;20127;48.962;8.342;2023-07-13T10:18:53;29.10;49.90
33825;DHT22;20127;48.962;8.342;2023-07-13T10:21:58;29.20;50.10
33825;DHT22;20127;48.962;8.342;2023-07-13T10:25:00;29.20;50.40
33825;DHT22;20127;48.962;8.342;2023-07-13T10:28:10;29.30;49.80
33825;DHT22;20127;48.962;8.342;2023-07-13T10:31:16;29.20;49.40
33825;DHT22;20127;48.962;8.342;2023-07-13T10:34:18;29.40;49.30
33825;DHT22;20127;48.962;8.342;2023-07-13T10:37:23;29.60;49.10
33825;DHT22;20127;48.962;8.342;2023-07-13T10:40:30;29.90;48.80
33825;DHT22;20127;48.962;8.342;2023-07-13T10:43:36;29.70;48.20
33825;DHT22;20127;48.962;8.342;2023-07-13T10:46:41;29.90;47.40
33825;DHT22;20127;48.962;8.342;2023-07-13T10:49:45;29.50;46.80
33825;DHT22;20127;48.962;8.342;2023-07-13T10:52:50;29.50;47.70
33825;DHT22;20127;48.962;8.342;2023-07-13T10:55:57;29.90;47.70
33825;DHT22;20127;48.962;8.342;2023-07-13T10:59:11;30.20;47.60
33825;DHT22;20127;48.962;8.342;2023-07-13T11:02:23;30.70;46.70
33825;DHT22;20127;48.962;8.342;2023-07-13T11:05:29;31.00;46.20
33825;DHT22;20127;48.962;8.342;2023-07-13T11:08:36;31.00;45.40
33825;DHT22;20127;48.962;8.342;2023-07-13T11:11:39;30.80;45.90
33825;DHT22;20127;48.962;8.342;2023-07-13T11:15:01;30.80;46.20
33825;DHT22;20127;48.962;8.342;2023-07-13T11:18:20;30.40;46.50
33825;DHT22;20127;48.962;8.342;2023-07-13T11:21:23;30.50;46.20
33825;DHT22;20127;48.962;8.342;2023-07-13T11:24:29;30.80;45.60
33825;DHT22;20127;48.962;8.342;2023-07-13T11:27:38;31.10;44.80
33825;DHT22;20127;48.962;8.342;2023-07-13T11:30:42;31.20;44.30
33825;DHT22;20127;48.962;8.342;2023-07-13T11:33:53;31.50;44.20
33825;DHT22;20127;48.962;8.342;2023-07-13T11:36:56;31.80;44.10
33825;DHT22;20127;48.962;8.342;2023-07-13T11:39:59;31.90;43.20
33825;DHT22;20127;48.962;8.342;2023-07-13T11:43:01;31.80;43.20
33825;DHT22;20127;48.962;8.342;2023-07-13T11:46:14;31.90;42.30
33825;DHT22;20127;48.962;8.342;2023-07-13T11:49:19;32.00;41.70
33825;DHT22;20127;48.962;8.342;2023-07-13T11:52:23;32.00;42.20
33825;DHT22;20127;48.962;8.342;2023-07-13T11:55:28;32.10;41.20
33825;DHT22;20127;48.962;8.342;2023-07-13T11:58:30;32.20;41.30
33825;DHT22;20127;48.962;8.342;2023-07-13T12:01:32;32.00;41.50
33825;DHT22;20127;48.962;8.342;2023-07-13T12:04:36;32.10;41.30
33825;DHT22;20127;48.962;8.342;2023-07-13T12:07:39;31.90;41.60
33825;DHT22;20127;48.962;8.342;2023-07-13T12:10:41;31.70;42.20
33825;DHT22;20127;48.962;8.342;2023-07-13T12:13:44;31.90;42.20
33825;DHT22;20127;48.962;8.342;2023-07-13T12:16:47;32.10;41.80
33825;DHT22;20127;48.962;8.342;2023-07-13T12:19:51;32.30;41.60
33825;DHT22;20127;48.962;8.342;2023-07-13T12:22:53;32.40;41.10
33825;DHT22;20127;48.962;8.342;2023-07-13T12:25:55;32.50;41.00
33825;DHT22;20127;48.962;8.342;2023-07-13T12:29:00;32.30;40.40
33825;DHT22;20127;48.962;8.342;2023-07-13T12:32:02;32.10;40.40
33825;DHT22;20127;48.962;8.342;2023-07-13T12:35:16;31.70;40.70
33825;DHT22;20127;48.962;8.342;2023-07-13T12:38:19;31.90;40.50
33825;DHT22;20127;48.962;8.342;2023-07-13T12:41:21;32.00;40.60
33825;DHT22;20127;48.962;8.342;2023-07-13T12:44:27;32.10;40.40
33825;DHT22;20127;48.962;8.342;2023-07-13T12:47:30;32.30;40.30
33825;DHT22;20127;48.962;8.342;2023-07-13T12:50:39;32.60;40.00
33825;DHT22;20127;48.962;8.342;2023-07-13T12:53:47;32.50;39.00
33825;DHT22;20127;48.962;8.342;2023-07-13T12:56:49;32.70;39.60
33825;DHT22;20127;48.962;8.342;2023-07-13T12:59:53;32.70;39.90
33825;DHT22;20127;48.962;8.342;2023-07-13T13:02:56;32.90;39.70
33825;DHT22;20127;48.962;8.342;2023-07-13T13:06:02;33.10;39.10
33825;DHT22;20127;48.962;8.342;2023-07-13T13:09:11;33.20;38.80
33825;DHT22;20127;48.962;8.342;2023-07-13T13:12:13;33.10;38.40
33825;DHT22;20127;48.962;8.342;2023-07-13T13:15:15;33.20;38.00
33825;DHT22;20127;48.962;8.342;2023-07-13T13:18:19;33.10;37.90
33825;DHT22;20127;48.962;8.342;2023-07-13T13:21:23;33.30;37.90
33825;DHT22;20127;48.962;8.342;2023-07-13T13:24:27;33.00;38.20
33825;DHT22;20127;48.962;8.342;2023-07-13T13:27:29;33.00;38.00
33825;DHT22;20127;48.962;8.342;2023-07-13T13:30:31;32.90;37.90
33825;DHT22;20127;48.962;8.342;2023-07-13T13:33:33;32.70;37.90
33825;DHT22;20127;48.962;8.342;2023-07-13T13:36:36;32.40;38.20
33825;DHT22;20127;48.962;8.342;2023-07-13T13:39:38;32.00;38.20
33825;DHT22;20127;48.962;8.342;2023-07-13T13:42:40;31.80;38.60
33825;DHT22;20127;48.962;8.342;2023-07-13T13:45:41;31.80;38.70
33825;DHT22;20127;48.962;8.342;2023-07-13T13:48:44;32.10;38.80
33825;DHT22;20127;48.962;8.342;2023-07-13T13:51:47;32.50;38.60
33825;DHT22;20127;48.962;8.342;2023-07-13T13:54:49;32.90;38.30
33825;DHT22;20127;48.962;8.342;2023-07-13T13:57:51;32.90;38.10
33825;DHT22;20127;48.962;8.342;2023-07-13T14:00:52;32.50;38.20
33825;DHT22;20127;48.962;8.342;2023-07-13T14:03:54;32.10;38.70
33825;DHT22;20127;48.962;8.342;2023-07-13T14:06:57;31.80;38.80
33825;DHT22;20127;48.962;8.342;2023-07-13T14:10:00;31.90;38.90
33825;DHT22;20127;48.962;8.342;2023-07-13T14:13:02;32.10;38.90
33825;DHT22;20127;48.962;8.342;2023-07-13T14:16:11;32.40;38.60
33825;DHT22;20127;48.962;8.342;2023-07-13T14:19:13;32.50;39.00
33825;DHT22;20127;48.962;8.342;2023-07-13T14:22:17;32.50;38.60
33825;DHT22;20127;48.962;8.342;2023-07-13T14:25:20;32.40;38.50
33825;DHT22;20127;48.962;8.342;2023-07-13T14:28:25;32.50;38.30
33825;DHT22;20127;48.962;8.342;2023-07-13T14:31:27;32.40;38.00
33825;DHT22;20127;48.962;8.342;2023-07-13T14:34:29;32.40;38.30
33825;DHT22;20127;48.962;8.342;2023-07-13T14:37:32;32.40;38.10
33825;DHT22;20127;48.962;8.342;2023-07-13T14:40:34;32.60;37.80
33825;DHT22;20127;48.962;8.342;2023-07-13T14:43:37;32.70;38.00
33825;DHT22;20127;48.962;8.342;2023-07-13T14:46:38;32.60;37.80
33825;DHT22;20127;48.962;8.342;2023-07-13T14:49:42;32.50;38.70
33825;DHT22;20127;48.962;8.342;2023-07-13T14:52:47;32.70;38.00
33825;DHT22;20127;48.962;8.342;2023-07-13T14:55:49;32.60;38.00
33825;DHT22;20127;48.962;8.342;2023-07-13T14:58:50;32.60;38.40
33825;DHT22;20127;48.962;8.342;2023-07-13T15:01:53;32.60;38.60
33825;DHT22;20127;48.962;8.342;2023-07-13T15:04:55;32.70;38.40
33825;DHT22;20127;48.962;8.342;2023-07-13T15:08:01;32.70;38.50
33825;DHT22;20127;48.962;8.342;2023-07-13T15:11:03;32.70;38.30
33825;DHT22;20127;48.962;8.342;2023-07-13T15:14:05;32.50;38.30
33825;DHT22;20127;48.962;8.342;2023-07-13T15:17:22;32.20;38.50
33825;DHT22;20127;48.962;8.342;2023-07-13T15:20:29;32.00;38.50
33825;DHT22;20127;48.962;8.342;2023-07-13T15:23:33;31.70;38.90
33825;DHT22;20127;48.962;8.342;2023-07-13T15:26:35;31.60;39.30
33825;DHT22;20127;48.962;8.342;2023-07-13T15:29:36;31.60;39.50
33825;DHT22;20127;48.962;8.342;2023-07-13T15:32:38;31.60;39.50
33825;DHT22;20127;48.962;8.342;2023-07-13T15:35:41;31.60;39.40
33825;DHT22;20127;48.962;8.342;2023-07-13T15:38:45;31.80;39.70
33825;DHT22;20127;48.962;8.342;2023-07-13T15:41:48;31.90;39.80
33825;DHT22;20127;48.962;8.342;2023-07-13T15:44:51;32.10;39.80
33825;DHT22;20127;48.962;8.342;2023-07-13T15:47:52;32.20;39.80
33825;DHT22;20127;48.962;8.342;2023-07-13T15:50:55;32.30;39.80
33825;DHT22;20127;48.962;8.342;2023-07-13T15:54:03;32.30;39.50
33825;DHT22;20127;48.962;8.342;2023-07-13T15:57:09;32.30;39.80
33825;DHT22;20127;48.962;8.342;2023-07-13T16:00:17;32.40;38.90
33825;DHT22;20127;48.962;8.342;2023-07-13T16:03:20;32.50;39.30
33825;DHT22;20127;48.962;8.342;2023-07-13T16:06:24;32.70;39.40
33825;DHT22;20127;48.962;8.342;2023-07-13T16:09:28;32.80;38.80
33825;DHT22;20127;48.962;8.342;2023-07-13T16:12:29;32.70;39.20
33825;DHT22;20127;48.962;8.342;2023-07-13T16:15:31;32.70;38.90
33825;DHT22;20127;48.962;8.342;2023-07-13T16:18:33;32.40;39.00
33825;DHT22;20127;48.962;8.342;2023-07-13T16:21:38;32.40;38.30
33825;DHT22;20127;48.962;8.342;2023-07-13T16:24:43;32.40;38.30
33825;DHT22;20127;48.962;8.342;2023-07-13T16:27:47;32.30;38.40
33825;DHT22;20127;48.962;8.342;2023-07-13T16:30:49;32.40;38.90
33825;DHT22;20127;48.962;8.342;2023-07-13T16:33:52;32.40;38.60
33825;DHT22;20127;48.962;8.342;2023-07-13T16:36:55;32.40;38.90
33825;DHT22;20127;48.962;8.342;2023-07-13T16:39:59;32.30;39.10
33825;DHT22;20127;48.962;8.342;2023-07-13T16:43:01;32.00;39.50
33825;DHT22;20127;48.962;8.342;2023-07-13T16:46:04;31.80;39.60
33825;DHT22;20127;48.962;8.342;2023-07-13T16:49:16;31.80;39.70
33825;DHT22;20127;48.962;8.342;2023-07-13T16:52:21;31.70;39.70
33825;DHT22;20127;48.962;8.342;2023-07-13T16:55:26;31.70;39.90
33825;DHT22;20127;48.962;8.342;2023-07-13T16:58:30;31.70;39.90
33825;DHT22;20127;48.962;8.342;2023-07-13T17:01:33;31.50;40.00
33825;DHT22;20127;48.962;8.342;2023-07-13T17:04:36;31.30;40.00
33825;DHT22;20127;48.962;8.342;2023-07-13T17:07:38;31.20;40.30
33825;DHT22;20127;48.962;8.342;2023-07-13T17:10:41;30.90;40.60
33825;DHT22;20127;48.962;8.342;2023-07-13T17:13:44;30.50;40.90
33825;DHT22;20127;48.962;8.342;2023-07-13T17:16:47;30.20;41.40
33825;DHT22;20127;48.962;8.342;2023-07-13T17:19:50;30.00;42.00
33825;DHT22;20127;48.962;8.342;2023-07-13T17:22:53;29.60;41.80
33825;DHT22;20127;48.962;8.342;2023-07-13T17:25:56;29.20;42.20
33825;DHT22;20127;48.962;8.342;2023-07-13T17:28:59;28.80;42.70
33825;DHT22;20127;48.962;8.342;2023-07-13T17:32:02;28.60;42.80
33825;DHT22;20127;48.962;8.342;2023-07-13T17:35:15;28.30;42.90
33825;DHT22;20127;48.962;8.342;2023-07-13T17:38:18;28.10;43.50
33825;DHT22;20127;48.962;8.342;2023-07-13T17:41:22;27.90;43.90
33825;DHT22;20127;48.962;8.342;2023-07-13T17:44:24;27.80;44.50
33825;DHT22;20127;48.962;8.342;2023-07-13T17:47:27;27.60;44.30
33825;DHT22;20127;48.962;8.342;2023-07-13T17:50:30;27.40;44.40
33825;DHT22;20127;48.962;8.342;2023-07-13T17:53:35;27.30;44.80
33825;DHT22;20127;48.962;8.342;2023-07-13T17:56:39;27.20;44.80
33825;DHT22;20127;48.962;8.342;2023-07-13T17:59:41;27.10;45.00
33825;DHT22;20127;48.962;8.342;2023-07-13T18:02:43;27.00;45.20
33825;DHT22;20127;48.962;8.342;2023-07-13T18:05:46;26.90;45.50
33825;DHT22;20127;48.962;8.342;2023-07-13T18:08:50;26.90;45.80
33825;DHT22;20127;48.962;8.342;2023-07-13T18:11:54;26.80;46.00
33825;DHT22;20127;48.962;8.342;2023-07-13T18:14:58;26.70;46.10
33825;DHT22;20127;48.962;8.342;2023-07-13T18:18:00;26.70;47.10
33825;DHT22;20127;48.962;8.342;2023-07-13T18:21:04;26.60;46.60
33825;DHT22;20127;48.962;8.342;2023-07-13T18:24:08;26.50;47.50
33825;DHT22;20127;48.962;8.342;2023-07-13T18:27:14;26.40;48.00
33825;DHT22;20127;48.962;8.342;2023-07-13T18:30:19;26.20;48.00
33825;DHT22;20127;48.962;8.342;2023-07-13T18:33:23;26.10;49.50
33825;DHT22;20127;48.962;8.342;2023-07-13T18:36:25;26.00;49.60
33825;DHT22;20127;48.962;8.342;2023-07-13T18:39:27;25.90;49.60
33825;DHT22;20127;48.962;8.342;2023-07-13T18:42:30;25.80;50.10
33825;DHT22;20127;48.962;8.342;2023-07-13T18:45:32;25.70;49.60
33825;DHT22;20127;48.962;8.342;2023-07-13T18:48:34;25.50;49.90
33825;DHT22;20127;48.962;8.342;2023-07-13T18:51:36;25.40;50.30
33825;DHT22;20127;48.962;8.342;2023-07-13T18:54:38;25.30;50.90
33825;DHT22;20127;48.962;8.342;2023-07-13T18:57:41;25.20;52.00
33825;DHT22;20127;48.962;8.342;2023-07-13T19:00:50;25.10;51.90
33825;DHT22;20127;48.962;8.342;2023-07-13T19:03:58;24.90;51.90
33825;DHT22;20127;48.962;8.342;2023-07-13T19:07:02;24.80;52.20
33825;DHT22;20127;48.962;8.342;2023-07-13T19:10:04;24.70;52.30
33825;DHT22;20127;48.962;8.342;2023-07-13T19:13:10;24.60;52.50
33825;DHT22;20127;48.962;8.342;2023-07-13T19:16:14;24.60;53.60
33825;DHT22;20127;48.962;8.342;2023-07-13T19:19:17;24.50;54.70